sensor_id;sensor_type;location;lat;lon;timestamp;temperature;humidity
19365;DHT22;9818;48.382;10.850;2022-09-09T00:00:20;13.10;99.90
19365;DHT22;9818;48.382;10.850;2022-09-09T00:02:52;13.10;99.90
19365;DHT22;9818;48.382;10.850;2022-09-09T00:05:23;13.00;99.90
19365;DHT22;9818;48.382;10.850;2022-09-09T00:07:58;13.10;99.90
19365;DHT22;9818;48.382;10.850;2022-09-09T00:10:28;13.00;99.90
19365;DHT22;9818;48.382;10.850;2022-09-09T00:12:57;13.00;99.90
19365;DHT22;9818;48.382;10.850;2022-09-09T00:15:33;13.00;99.90
19365;DHT22;9818;48.382;10.850;2022-09-09T00:18:03;12.90;99.90
19365;DHT22;9818;48.382;10.850;2022-09-09T00:20:38;12.90;99.90
19365;DHT22;9818;48.382;10.850;2022-09-09T00:23:11;12.90;99.90
19365;DHT22;9818;48.382;10.850;2022-09-09T00:25:42;12.90;99.90
19365;DHT22;9818;48.382;10.850;2022-09-09T00:28:17;12.90;99.90
19365;DHT22;9818;48.382;10.850;2022-09-09T00:30:48;12.90;99.90
19365;DHT22;9818;48.382;10.850;2022-09-09T00:33:18;12.90;99.90
19365;DHT22;9818;48.382;10.850;2022-09-09T00:35:48;12.90;99.90
19365;DHT22;9818;48.382;10.850;2022-09-09T00:38:18;13.00;99.90
19365;DHT22;9818;48.382;10.850;2022-09-09T00:40:49;13.00;99.90
19365;DHT22;9818;48.382;10.850;2022-09-09T00:43:24;13.10;99.90
19365;DHT22;9818;48.382;10.850;2022-09-09T00:48:53;13.10;99.90
19365;DHT22;9818;48.382;10.850;2022-09-09T00:51:26;13.20;99.90
19365;DHT22;9818;48.382;10.850;2022-09-09T00:54:00;13.10;99.90
19365;DHT22;9818;48.382;10.850;2022-09-09T00:56:34;13.20;99.90
19365;DHT22;9818;48.382;10.850;2022-09-09T00:59:11;13.20;99.90
19365;DHT22;9818;48.382;10.850;2022-09-09T01:01:42;13.20;99.90
19365;DHT22;9818;48.382;10.850;2022-09-09T01:04:15;13.20;99.90
19365;DHT22;9818;48.382;10.850;2022-09-09T01:06:45;13.20;99.90
19365;DHT22;9818;48.382;10.850;2022-09-09T01:20:39;13.00;99.90
19365;DHT22;9818;48.382;10.850;2022-09-09T01:23:15;13.00;99.90
19365;DHT22;9818;48.382;10.850;2022-09-09T01:28:42;12.90;99.90
19365;DHT22;9818;48.382;10.850;2022-09-09T01:31:11;12.80;99.90
19365;DHT22;9818;48.382;10.850;2022-09-09T01:33:42;12.80;99.90
19365;DHT22;9818;48.382;10.850;2022-09-09T01:36:12;12.80;99.90
19365;DHT22;9818;48.382;10.850;2022-09-09T01:38:41;12.80;99.90
19365;DHT22;9818;48.382;10.850;2022-09-09T01:41:10;12.80;99.90
19365;DHT22;9818;48.382;10.850;2022-09-09T01:43:38;12.70;99.90
19365;DHT22;9818;48.382;10.850;2022-09-09T01:46:09;12.80;99.90
19365;DHT22;9818;48.382;10.850;2022-09-09T01:48:38;12.80;99.90
19365;DHT22;9818;48.382;10.850;2022-09-09T01:51:07;12.80;99.90
19365;DHT22;9818;48.382;10.850;2022-09-09T01:53:36;12.70;99.90
19365;DHT22;9818;48.382;10.850;2022-09-09T01:56:07;12.70;99.90
19365;DHT22;9818;48.382;10.850;2022-09-09T01:58:43;12.70;99.90
19365;DHT22;9818;48.382;10.850;2022-09-09T02:01:17;12.70;99.90
19365;DHT22;9818;48.382;10.850;2022-09-09T02:03:50;12.70;99.90
19365;DHT22;9818;48.382;10.850;2022-09-09T02:06:24;12.70;99.90
19365;DHT22;9818;48.382;10.850;2022-09-09T02:08:55;12.70;99.90
19365;DHT22;9818;48.382;10.850;2022-09-09T02:11:25;12.60;99.90
19365;DHT22;9818;48.382;10.850;2022-09-09T02:13:54;12.60;99.90
19365;DHT22;9818;48.382;10.850;2022-09-09T02:16:28;12.60;99.90
19365;DHT22;9818;48.382;10.850;2022-09-09T02:19:01;12.60;99.90
19365;DHT22;9818;48.382;10.850;2022-09-09T02:21:30;12.50;99.90
19365;DHT22;9818;48.382;10.850;2022-09-09T02:24:01;12.50;99.90
19365;DHT22;9818;48.382;10.850;2022-09-09T02:26:33;12.60;99.90
19365;DHT22;9818;48.382;10.850;2022-09-09T02:29:04;12.50;99.90
19365;DHT22;9818;48.382;10.850;2022-09-09T02:31:36;12.40;99.90
19365;DHT22;9818;48.382;10.850;2022-09-09T02:34:06;12.40;99.90
19365;DHT22;9818;48.382;10.850;2022-09-09T02:36:38;12.40;99.90
19365;DHT22;9818;48.382;10.850;2022-09-09T02:39:08;12.40;99.90
19365;DHT22;9818;48.382;10.850;2022-09-09T02:41:38;12.40;99.90
19365;DHT22;9818;48.382;10.850;2022-09-09T02:44:09;12.40;99.90
19365;DHT22;9818;48.382;10.850;2022-09-09T02:46:47;12.40;99.90
19365;DHT22;9818;48.382;10.850;2022-09-09T02:49:26;12.40;99.90
19365;DHT22;9818;48.382;10.850;2022-09-09T02:51:57;12.40;99.90
19365;DHT22;9818;48.382;10.850;2022-09-09T02:54:29;12.40;99.90
19365;DHT22;9818;48.382;10.850;2022-09-09T02:56:59;12.30;99.90
19365;DHT22;9818;48.382;10.850;2022-09-09T02:59:30;12.30;99.90
19365;DHT22;9818;48.382;10.850;2022-09-09T03:02:01;12.30;99.90
19365;DHT22;9818;48.382;10.850;2022-09-09T03:04:30;12.30;99.90
19365;DHT22;9818;48.382;10.850;2022-09-09T03:06:59;12.30;99.90
19365;DHT22;9818;48.382;10.850;2022-09-09T03:09:29;12.20;99.90
19365;DHT22;9818;48.382;10.850;2022-09-09T03:11:57;12.20;99.90
19365;DHT22;9818;48.382;10.850;2022-09-09T03:14:26;12.20;99.90
19365;DHT22;9818;48.382;10.850;2022-09-09T03:16:55;12.20;99.90
19365;DHT22;9818;48.382;10.850;2022-09-09T03:19:28;12.20;99.90
19365;DHT22;9818;48.382;10.850;2022-09-09T03:21:57;12.20;99.90
19365;DHT22;9818;48.382;10.850;2022-09-09T03:24:25;12.20;99.90
19365;DHT22;9818;48.382;10.850;2022-09-09T03:26:54;12.20;99.90
19365;DHT22;9818;48.382;10.850;2022-09-09T03:29:22;12.20;99.90
19365;DHT22;9818;48.382;10.850;2022-09-09T03:31:51;12.20;99.90
19365;DHT22;9818;48.382;10.850;2022-09-09T03:34:19;12.20;99.90
19365;DHT22;9818;48.382;10.850;2022-09-09T03:36:50;12.20;99.90
19365;DHT22;9818;48.382;10.850;2022-09-09T03:39:19;12.30;99.90
19365;DHT22;9818;48.382;10.850;2022-09-09T03:41:47;12.30;99.90
19365;DHT22;9818;48.382;10.850;2022-09-09T03:44:15;12.30;99.90
19365;DHT22;9818;48.382;10.850;2022-09-09T03:46:44;12.20;99.90
19365;DHT22;9818;48.382;10.850;2022-09-09T03:49:12;12.20;99.90
19365;DHT22;9818;48.382;10.850;2022-09-09T03:51:42;12.30;99.90
19365;DHT22;9818;48.382;10.850;2022-09-09T03:54:13;12.20;99.90
19365;DHT22;9818;48.382;10.850;2022-09-09T03:56:41;12.20;99.90
19365;DHT22;9818;48.382;10.850;2022-09-09T03:59:11;12.30;99.90
19365;DHT22;9818;48.382;10.850;2022-09-09T04:01:39;12.30;99.90
19365;DHT22;9818;48.382;10.850;2022-09-09T04:04:08;12.30;99.90
19365;DHT22;9818;48.382;10.850;2022-09-09T04:06:37;12.30;99.90
19365;DHT22;9818;48.382;10.850;2022-09-09T04:09:05;12.20;99.90
19365;DHT22;9818;48.382;10.850;2022-09-09T04:11:36;12.20;99.90
19365;DHT22;9818;48.382;10.850;2022-09-09T04:14:05;12.30;99.90
19365;DHT22;9818;48.382;10.850;2022-09-09T04:16:34;12.30;99.90
19365;DHT22;9818;48.382;10.850;2022-09-09T04:19:03;12.30;99.90
19365;DHT22;9818;48.382;10.850;2022-09-09T04:21:33;12.40;99.90
19365;DHT22;9818;48.382;10.850;2022-09-09T04:24:01;12.40;99.90
19365;DHT22;9818;48.382;10.850;2022-09-09T04:26:30;12.60;99.90
19365;DHT22;9818;48.382;10.850;2022-09-09T04:29:01;12.60;99.90
19365;DHT22;9818;48.382;10.850;2022-09-09T04:31:29;12.70;99.90
19365;DHT22;9818;48.382;10.850;2022-09-09T04:33:58;12.80;99.90
19365;DHT22;9818;48.382;10.850;2022-09-09T04:36:27;12.80;99.90
19365;DHT22;9818;48.382;10.850;2022-09-09T04:38:57;12.90;99.90
19365;DHT22;9818;48.382;10.850;2022-09-09T04:41:26;13.00;99.90
19365;DHT22;9818;48.382;10.850;2022-09-09T04:43:56;13.00;99.90
19365;DHT22;9818;48.382;10.850;2022-09-09T04:46:27;13.10;99.90
19365;DHT22;9818;48.382;10.850;2022-09-09T04:48:56;13.20;99.90
19365;DHT22;9818;48.382;10.850;2022-09-09T04:51:24;13.10;99.90
19365;DHT22;9818;48.382;10.850;2022-09-09T04:53:53;13.20;99.90
19365;DHT22;9818;48.382;10.850;2022-09-09T04:56:22;13.20;99.90
19365;DHT22;9818;48.382;10.850;2022-09-09T04:58:52;13.20;99.90
19365;DHT22;9818;48.382;10.850;2022-09-09T05:01:21;13.30;99.90
19365;DHT22;9818;48.382;10.850;2022-09-09T05:03:52;13.30;99.90
19365;DHT22;9818;48.382;10.850;2022-09-09T05:06:21;13.30;99.90
19365;DHT22;9818;48.382;10.850;2022-09-09T05:08:50;13.30;99.90
19365;DHT22;9818;48.382;10.850;2022-09-09T05:11:19;13.30;99.90
19365;DHT22;9818;48.382;10.850;2022-09-09T05:13:48;13.50;99.90
19365;DHT22;9818;48.382;10.850;2022-09-09T05:16:18;13.60;99.90
19365;DHT22;9818;48.382;10.850;2022-09-09T05:18:48;13.80;99.90
19365;DHT22;9818;48.382;10.850;2022-09-09T05:21:20;13.90;99.90
19365;DHT22;9818;48.382;10.850;2022-09-09T05:23:50;14.00;99.90
19365;DHT22;9818;48.382;10.850;2022-09-09T05:26:19;14.10;99.90
19365;DHT22;9818;48.382;10.850;2022-09-09T05:28:49;14.10;99.90
19365;DHT22;9818;48.382;10.850;2022-09-09T05:31:18;14.10;99.90
19365;DHT22;9818;48.382;10.850;2022-09-09T05:33:47;14.20;99.90
19365;DHT22;9818;48.382;10.850;2022-09-09T05:36:16;14.20;99.90
19365;DHT22;9818;48.382;10.850;2022-09-09T05:38:47;14.20;99.90
19365;DHT22;9818;48.382;10.850;2022-09-09T05:41:16;14.30;99.90
19365;DHT22;9818;48.382;10.850;2022-09-09T05:43:45;14.20;99.90
19365;DHT22;9818;48.382;10.850;2022-09-09T05:46:14;14.20;99.90
19365;DHT22;9818;48.382;10.850;2022-09-09T05:48:43;14.20;99.90
19365;DHT22;9818;48.382;10.850;2022-09-09T05:51:13;14.20;99.90
19365;DHT22;9818;48.382;10.850;2022-09-09T05:53:43;14.20;99.90
19365;DHT22;9818;48.382;10.850;2022-09-09T05:56:15;14.20;99.90
19365;DHT22;9818;48.382;10.850;2022-09-09T05:58:43;14.10;99.90
19365;DHT22;9818;48.382;10.850;2022-09-09T06:01:12;14.30;99.90
19365;DHT22;9818;48.382;10.850;2022-09-09T06:03:42;14.30;99.90
19365;DHT22;9818;48.382;10.850;2022-09-09T06:06:11;14.50;99.90
19365;DHT22;9818;48.382;10.850;2022-09-09T06:08:40;14.70;99.90
19365;DHT22;9818;48.382;10.850;2022-09-09T06:11:09;14.80;99.90
19365;DHT22;9818;48.382;10.850;2022-09-09T06:13:41;15.00;99.90
19365;DHT22;9818;48.382;10.850;2022-09-09T06:16:10;15.10;99.90
19365;DHT22;9818;48.382;10.850;2022-09-09T06:18:39;15.30;99.90
19365;DHT22;9818;48.382;10.850;2022-09-09T06:21:09;15.40;99.90
19365;DHT22;9818;48.382;10.850;2022-09-09T06:23:39;15.40;99.90
19365;DHT22;9818;48.382;10.850;2022-09-09T06:26:12;15.50;99.90
19365;DHT22;9818;48.382;10.850;2022-09-09T06:28:44;15.50;99.90
19365;DHT22;9818;48.382;10.850;2022-09-09T06:31:14;15.50;99.90
19365;DHT22;9818;48.382;10.850;2022-09-09T06:33:47;15.70;99.90
19365;DHT22;9818;48.382;10.850;2022-09-09T06:36:18;15.70;99.90
19365;DHT22;9818;48.382;10.850;2022-09-09T06:38:47;15.90;99.90
19365;DHT22;9818;48.382;10.850;2022-09-09T06:41:17;15.90;99.90
19365;DHT22;9818;48.382;10.850;2022-09-09T06:43:49;16.00;99.90
19365;DHT22;9818;48.382;10.850;2022-09-09T06:46:21;16.20;99.90
19365;DHT22;9818;48.382;10.850;2022-09-09T06:48:53;16.50;99.90
19365;DHT22;9818;48.382;10.850;2022-09-09T06:51:25;16.50;99.90
19365;DHT22;9818;48.382;10.850;2022-09-09T06:53:55;16.60;99.90
19365;DHT22;9818;48.382;10.850;2022-09-09T06:56:25;16.90;99.90
19365;DHT22;9818;48.382;10.850;2022-09-09T06:58:58;17.00;99.90
19365;DHT22;9818;48.382;10.850;2022-09-09T07:01:31;17.00;99.90
19365;DHT22;9818;48.382;10.850;2022-09-09T07:04:01;16.90;99.90
19365;DHT22;9818;48.382;10.850;2022-09-09T07:06:32;16.80;99.90
19365;DHT22;9818;48.382;10.850;2022-09-09T07:09:02;16.60;99.90
19365;DHT22;9818;48.382;10.850;2022-09-09T07:11:34;16.50;99.90
19365;DHT22;9818;48.382;10.850;2022-09-09T07:14:05;16.50;99.90
19365;DHT22;9818;48.382;10.850;2022-09-09T07:16:34;16.50;99.90
19365;DHT22;9818;48.382;10.850;2022-09-09T07:19:05;16.60;99.90
19365;DHT22;9818;48.382;10.850;2022-09-09T07:21:34;16.50;99.90
19365;DHT22;9818;48.382;10.850;2022-09-09T07:24:03;16.40;99.90
19365;DHT22;9818;48.382;10.850;2022-09-09T07:26:33;16.50;99.90
19365;DHT22;9818;48.382;10.850;2022-09-09T07:29:05;16.40;99.90
19365;DHT22;9818;48.382;10.850;2022-09-09T07:31:35;16.60;99.90
19365;DHT22;9818;48.382;10.850;2022-09-09T07:34:05;16.90;99.90
19365;DHT22;9818;48.382;10.850;2022-09-09T07:36:36;17.20;99.90
19365;DHT22;9818;48.382;10.850;2022-09-09T07:39:07;17.40;99.90
19365;DHT22;9818;48.382;10.850;2022-09-09T07:41:37;17.40;99.90
19365;DHT22;9818;48.382;10.850;2022-09-09T07:44:10;17.40;99.90
19365;DHT22;9818;48.382;10.850;2022-09-09T07:46:40;17.40;99.90
19365;DHT22;9818;48.382;10.850;2022-09-09T07:49:12;17.40;99.90
19365;DHT22;9818;48.382;10.850;2022-09-09T07:51:43;17.30;99.90
19365;DHT22;9818;48.382;10.850;2022-09-09T07:54:14;17.10;99.90
19365;DHT22;9818;48.382;10.850;2022-09-09T07:56:43;17.40;99.90
19365;DHT22;9818;48.382;10.850;2022-09-09T07:59:15;17.60;99.90
19365;DHT22;9818;48.382;10.850;2022-09-09T08:01:45;17.70;99.90
19365;DHT22;9818;48.382;10.850;2022-09-09T08:04:15;18.10;99.90
19365;DHT22;9818;48.382;10.850;2022-09-09T08:06:44;18.30;99.90
19365;DHT22;9818;48.382;10.850;2022-09-09T08:09:14;18.10;99.90
19365;DHT22;9818;48.382;10.850;2022-09-09T08:11:42;18.20;99.90
19365;DHT22;9818;48.382;10.850;2022-09-09T08:14:15;18.20;99.90
19365;DHT22;9818;48.382;10.850;2022-09-09T08:16:45;18.60;99.90
19365;DHT22;9818;48.382;10.850;2022-09-09T08:19:14;19.90;99.90
19365;DHT22;9818;48.382;10.850;2022-09-09T08:21:44;20.40;99.90
19365;DHT22;9818;48.382;10.850;2022-09-09T08:24:14;20.10;99.90
19365;DHT22;9818;48.382;10.850;2022-09-09T08:26:45;20.10;99.90
19365;DHT22;9818;48.382;10.850;2022-09-09T08:29:17;20.40;99.90
19365;DHT22;9818;48.382;10.850;2022-09-09T08:31:46;20.40;99.90
19365;DHT22;9818;48.382;10.850;2022-09-09T08:34:16;21.00;99.90
19365;DHT22;9818;48.382;10.850;2022-09-09T08:36:47;21.60;99.90
19365;DHT22;9818;48.382;10.850;2022-09-09T08:39:18;21.70;99.90
19365;DHT22;9818;48.382;10.850;2022-09-09T08:45:10;21.40;99.90
19365;DHT22;9818;48.382;10.850;2022-09-09T08:47:47;21.10;99.90
19365;DHT22;9818;48.382;10.850;2022-09-09T08:50:25;21.30;99.90
19365;DHT22;9818;48.382;10.850;2022-09-09T08:52:59;21.30;99.90
19365;DHT22;9818;48.382;10.850;2022-09-09T08:55:37;21.40;99.90
19365;DHT22;9818;48.382;10.850;2022-09-09T08:58:13;22.00;99.90
19365;DHT22;9818;48.382;10.850;2022-09-09T09:00:55;22.80;99.90
19365;DHT22;9818;48.382;10.850;2022-09-09T09:03:33;23.10;99.90
19365;DHT22;9818;48.382;10.850;2022-09-09T09:06:09;23.00;99.90
19365;DHT22;9818;48.382;10.850;2022-09-09T09:08:45;22.50;99.90
19365;DHT22;9818;48.382;10.850;2022-09-09T09:11:17;22.50;99.90
19365;DHT22;9818;48.382;10.850;2022-09-09T09:13:50;22.10;99.90
19365;DHT22;9818;48.382;10.850;2022-09-09T09:16:30;22.40;99.90
19365;DHT22;9818;48.382;10.850;2022-09-09T09:19:02;22.50;99.90
19365;DHT22;9818;48.382;10.850;2022-09-09T09:21:38;22.50;99.90
19365;DHT22;9818;48.382;10.850;2022-09-09T09:24:15;22.70;99.90
19365;DHT22;9818;48.382;10.850;2022-09-09T09:26:45;22.60;99.90
19365;DHT22;9818;48.382;10.850;2022-09-09T09:29:16;23.00;99.90
19365;DHT22;9818;48.382;10.850;2022-09-09T09:31:50;22.80;99.90
19365;DHT22;9818;48.382;10.850;2022-09-09T09:34:20;23.00;99.90
19365;DHT22;9818;48.382;10.850;2022-09-09T09:36:53;23.10;99.90
19365;DHT22;9818;48.382;10.850;2022-09-09T09:39:25;23.00;99.90
19365;DHT22;9818;48.382;10.850;2022-09-09T09:41:54;23.70;99.90
19365;DHT22;9818;48.382;10.850;2022-09-09T09:44:25;24.60;99.90
19365;DHT22;9818;48.382;10.850;2022-09-09T09:47:10;24.00;99.90
19365;DHT22;9818;48.382;10.850;2022-09-09T09:49:39;23.70;99.90
19365;DHT22;9818;48.382;10.850;2022-09-09T09:52:22;23.90;99.90
19365;DHT22;9818;48.382;10.850;2022-09-09T09:54:56;23.40;99.90
19365;DHT22;9818;48.382;10.850;2022-09-09T09:57:27;23.60;99.90
19365;DHT22;9818;48.382;10.850;2022-09-09T10:00:03;23.60;99.90
19365;DHT22;9818;48.382;10.850;2022-09-09T10:02:40;22.80;99.90
19365;DHT22;9818;48.382;10.850;2022-09-09T10:05:14;22.20;99.90
19365;DHT22;9818;48.382;10.850;2022-09-09T10:07:44;22.40;99.90
19365;DHT22;9818;48.382;10.850;2022-09-09T10:10:18;22.50;99.90
19365;DHT22;9818;48.382;10.850;2022-09-09T10:12:55;22.90;99.90
19365;DHT22;9818;48.382;10.850;2022-09-09T10:15:40;23.10;99.90
19365;DHT22;9818;48.382;10.850;2022-09-09T10:18:26;23.20;99.90
19365;DHT22;9818;48.382;10.850;2022-09-09T10:21:03;23.50;99.90
19365;DHT22;9818;48.382;10.850;2022-09-09T10:23:48;23.90;99.90
19365;DHT22;9818;48.382;10.850;2022-09-09T10:26:34;23.50;99.90
19365;DHT22;9818;48.382;10.850;2022-09-09T10:29:08;23.20;99.90
19365;DHT22;9818;48.382;10.850;2022-09-09T10:31:41;22.80;99.90
19365;DHT22;9818;48.382;10.850;2022-09-09T10:34:16;23.50;99.90
19365;DHT22;9818;48.382;10.850;2022-09-09T10:36:48;23.30;99.90
19365;DHT22;9818;48.382;10.850;2022-09-09T10:39:31;23.60;99.90
19365;DHT22;9818;48.382;10.850;2022-09-09T10:42:03;23.40;99.90
19365;DHT22;9818;48.382;10.850;2022-09-09T10:44:40;23.00;99.90
19365;DHT22;9818;48.382;10.850;2022-09-09T10:47:22;23.20;99.90
19365;DHT22;9818;48.382;10.850;2022-09-09T10:50:06;22.90;99.90
19365;DHT22;9818;48.382;10.850;2022-09-09T10:52:42;23.00;99.90
19365;DHT22;9818;48.382;10.850;2022-09-09T10:55:18;22.50;99.90
19365;DHT22;9818;48.382;10.850;2022-09-09T10:57:48;22.20;99.90
19365;DHT22;9818;48.382;10.850;2022-09-09T11:00:19;21.90;99.90
19365;DHT22;9818;48.382;10.850;2022-09-09T11:02:49;21.60;99.90
19365;DHT22;9818;48.382;10.850;2022-09-09T11:05:24;22.00;99.90
19365;DHT22;9818;48.382;10.850;2022-09-09T11:07:55;22.20;99.90
19365;DHT22;9818;48.382;10.850;2022-09-09T11:10:26;22.10;99.90
19365;DHT22;9818;48.382;10.850;2022-09-09T11:12:59;22.20;99.90
19365;DHT22;9818;48.382;10.850;2022-09-09T11:15:31;22.30;99.90
19365;DHT22;9818;48.382;10.850;2022-09-09T11:18:03;22.60;99.90
19365;DHT22;9818;48.382;10.850;2022-09-09T11:20:35;22.50;99.90
19365;DHT22;9818;48.382;10.850;2022-09-09T11:23:04;23.10;99.90
19365;DHT22;9818;48.382;10.850;2022-09-09T11:25:38;23.20;99.90
19365;DHT22;9818;48.382;10.850;2022-09-09T11:28:13;23.70;99.90
19365;DHT22;9818;48.382;10.850;2022-09-09T11:30:46;23.80;99.90
19365;DHT22;9818;48.382;10.850;2022-09-09T11:33:29;23.60;99.90
19365;DHT22;9818;48.382;10.850;2022-09-09T11:36:06;23.80;99.90
19365;DHT22;9818;48.382;10.850;2022-09-09T11:38:41;23.60;99.90
19365;DHT22;9818;48.382;10.850;2022-09-09T11:41:13;23.00;99.90
19365;DHT22;9818;48.382;10.850;2022-09-09T11:43:43;23.00;99.90
19365;DHT22;9818;48.382;10.850;2022-09-09T11:46:12;23.30;99.90
19365;DHT22;9818;48.382;10.850;2022-09-09T11:48:42;23.10;99.90
19365;DHT22;9818;48.382;10.850;2022-09-09T11:51:25;22.70;99.90
19365;DHT22;9818;48.382;10.850;2022-09-09T11:53:55;22.80;99.90
19365;DHT22;9818;48.382;10.850;2022-09-09T11:56:25;22.90;99.90
19365;DHT22;9818;48.382;10.850;2022-09-09T11:58:55;23.00;99.90
19365;DHT22;9818;48.382;10.850;2022-09-09T12:01:27;23.60;99.90
19365;DHT22;9818;48.382;10.850;2022-09-09T12:04:01;24.20;99.90
19365;DHT22;9818;48.382;10.850;2022-09-09T12:06:41;24.10;99.90
19365;DHT22;9818;48.382;10.850;2022-09-09T12:09:15;23.00;99.90
19365;DHT22;9818;48.382;10.850;2022-09-09T12:11:45;22.80;99.90
19365;DHT22;9818;48.382;10.850;2022-09-09T12:14:23;22.80;99.90
19365;DHT22;9818;48.382;10.850;2022-09-09T12:19:46;22.50;99.90
19365;DHT22;9818;48.382;10.850;2022-09-09T12:22:20;22.30;99.90
19365;DHT22;9818;48.382;10.850;2022-09-09T12:24:56;22.20;99.90
19365;DHT22;9818;48.382;10.850;2022-09-09T12:27:33;22.00;99.90
19365;DHT22;9818;48.382;10.850;2022-09-09T12:30:08;22.10;99.90
19365;DHT22;9818;48.382;10.850;2022-09-09T12:32:38;21.90;99.90
19365;DHT22;9818;48.382;10.850;2022-09-09T12:35:11;21.70;99.90
19365;DHT22;9818;48.382;10.850;2022-09-09T12:37:46;21.70;99.90
19365;DHT22;9818;48.382;10.850;2022-09-09T12:40:22;21.70;99.90
19365;DHT22;9818;48.382;10.850;2022-09-09T12:42:51;21.50;99.90
19365;DHT22;9818;48.382;10.850;2022-09-09T12:45:22;21.30;99.90
19365;DHT22;9818;48.382;10.850;2022-09-09T12:47:54;21.20;99.90
19365;DHT22;9818;48.382;10.850;2022-09-09T12:50:26;21.30;99.90
19365;DHT22;9818;48.382;10.850;2022-09-09T12:53:01;21.60;99.90
19365;DHT22;9818;48.382;10.850;2022-09-09T12:55:32;21.70;99.90
19365;DHT22;9818;48.382;10.850;2022-09-09T12:58:02;21.90;99.90
19365;DHT22;9818;48.382;10.850;2022-09-09T13:00:33;21.90;99.90
19365;DHT22;9818;48.382;10.850;2022-09-09T13:03:14;21.30;99.90
19365;DHT22;9818;48.382;10.850;2022-09-09T13:05:44;21.50;99.90
19365;DHT22;9818;48.382;10.850;2022-09-09T13:08:17;21.60;99.90
19365;DHT22;9818;48.382;10.850;2022-09-09T13:10:50;21.70;99.90
19365;DHT22;9818;48.382;10.850;2022-09-09T13:13:23;21.70;99.90
19365;DHT22;9818;48.382;10.850;2022-09-09T13:15:54;21.90;99.90
19365;DHT22;9818;48.382;10.850;2022-09-09T13:18:26;22.10;99.90
19365;DHT22;9818;48.382;10.850;2022-09-09T13:20:56;21.60;99.90
19365;DHT22;9818;48.382;10.850;2022-09-09T13:23:30;21.50;99.90
19365;DHT22;9818;48.382;10.850;2022-09-09T13:26:02;21.30;99.90
19365;DHT22;9818;48.382;10.850;2022-09-09T13:28:33;21.90;99.90
19365;DHT22;9818;48.382;10.850;2022-09-09T13:31:04;22.10;99.90
19365;DHT22;9818;48.382;10.850;2022-09-09T13:33:34;22.40;99.90
19365;DHT22;9818;48.382;10.850;2022-09-09T13:36:05;22.50;99.90
19365;DHT22;9818;48.382;10.850;2022-09-09T13:38:38;22.50;99.90
19365;DHT22;9818;48.382;10.850;2022-09-09T13:41:07;22.00;99.90
19365;DHT22;9818;48.382;10.850;2022-09-09T13:43:37;21.80;99.90
19365;DHT22;9818;48.382;10.850;2022-09-09T13:46:21;22.10;99.90
19365;DHT22;9818;48.382;10.850;2022-09-09T13:48:54;21.70;99.90
19365;DHT22;9818;48.382;10.850;2022-09-09T13:51:32;21.20;99.90
19365;DHT22;9818;48.382;10.850;2022-09-09T13:54:05;20.80;99.90
19365;DHT22;9818;48.382;10.850;2022-09-09T13:56:34;20.50;99.90
19365;DHT22;9818;48.382;10.850;2022-09-09T13:59:04;20.20;99.90
19365;DHT22;9818;48.382;10.850;2022-09-09T14:01:33;20.00;99.90
19365;DHT22;9818;48.382;10.850;2022-09-09T14:04:03;19.90;99.90
19365;DHT22;9818;48.382;10.850;2022-09-09T14:06:31;19.70;99.90
19365;DHT22;9818;48.382;10.850;2022-09-09T14:09:05;19.10;99.90
19365;DHT22;9818;48.382;10.850;2022-09-09T14:11:34;18.20;99.90
19365;DHT22;9818;48.382;10.850;2022-09-09T14:14:03;18.20;99.90
19365;DHT22;9818;48.382;10.850;2022-09-09T14:16:31;18.20;99.90
19365;DHT22;9818;48.382;10.850;2022-09-09T14:19:00;18.30;99.90
19365;DHT22;9818;48.382;10.850;2022-09-09T14:21:29;18.60;99.90
19365;DHT22;9818;48.382;10.850;2022-09-09T14:23:58;19.10;99.90
19365;DHT22;9818;48.382;10.850;2022-09-09T14:26:29;19.50;99.90
19365;DHT22;9818;48.382;10.850;2022-09-09T14:28:58;20.00;99.90
19365;DHT22;9818;48.382;10.850;2022-09-09T14:31:27;20.70;99.90
19365;DHT22;9818;48.382;10.850;2022-09-09T14:33:56;21.00;99.90
19365;DHT22;9818;48.382;10.850;2022-09-09T14:36:24;20.50;99.90
19365;DHT22;9818;48.382;10.850;2022-09-09T14:38:53;20.10;99.90
19365;DHT22;9818;48.382;10.850;2022-09-09T14:41:22;20.10;99.90
19365;DHT22;9818;48.382;10.850;2022-09-09T14:43:54;20.00;99.90
19365;DHT22;9818;48.382;10.850;2022-09-09T14:46:22;19.90;99.90
19365;DHT22;9818;48.382;10.850;2022-09-09T14:48:51;19.60;99.90
19365;DHT22;9818;48.382;10.850;2022-09-09T14:51:21;19.20;99.90
19365;DHT22;9818;48.382;10.850;2022-09-09T14:53:51;19.00;99.90
19365;DHT22;9818;48.382;10.850;2022-09-09T14:56:21;19.20;99.90
19365;DHT22;9818;48.382;10.850;2022-09-09T14:58:50;19.20;99.90
19365;DHT22;9818;48.382;10.850;2022-09-09T15:01:24;19.60;99.90
19365;DHT22;9818;48.382;10.850;2022-09-09T15:03:55;19.80;99.90
19365;DHT22;9818;48.382;10.850;2022-09-09T15:06:24;20.20;99.90
19365;DHT22;9818;48.382;10.850;2022-09-09T15:08:54;20.90;99.90
19365;DHT22;9818;48.382;10.850;2022-09-09T15:11:23;21.00;99.90
19365;DHT22;9818;48.382;10.850;2022-09-09T15:13:54;21.20;99.90
19365;DHT22;9818;48.382;10.850;2022-09-09T15:16:27;21.10;99.90
19365;DHT22;9818;48.382;10.850;2022-09-09T15:18:57;21.00;99.90
19365;DHT22;9818;48.382;10.850;2022-09-09T15:21:27;20.90;99.90
19365;DHT22;9818;48.382;10.850;2022-09-09T15:23:56;20.80;99.90
19365;DHT22;9818;48.382;10.850;2022-09-09T15:26:24;20.70;99.90
19365;DHT22;9818;48.382;10.850;2022-09-09T15:28:53;20.70;99.90
19365;DHT22;9818;48.382;10.850;2022-09-09T15:31:28;20.80;99.90
19365;DHT22;9818;48.382;10.850;2022-09-09T15:33:57;20.80;99.90
19365;DHT22;9818;48.382;10.850;2022-09-09T15:36:26;20.90;99.90
19365;DHT22;9818;48.382;10.850;2022-09-09T15:38:55;20.90;99.90
19365;DHT22;9818;48.382;10.850;2022-09-09T15:41:24;20.80;99.90
19365;DHT22;9818;48.382;10.850;2022-09-09T15:43:54;20.80;99.90
19365;DHT22;9818;48.382;10.850;2022-09-09T15:46:32;20.70;99.90
19365;DHT22;9818;48.382;10.850;2022-09-09T15:49:03;20.60;99.90
19365;DHT22;9818;48.382;10.850;2022-09-09T15:51:32;20.40;99.90
19365;DHT22;9818;48.382;10.850;2022-09-09T15:54:01;20.40;99.90
19365;DHT22;9818;48.382;10.850;2022-09-09T15:56:30;20.60;99.90
19365;DHT22;9818;48.382;10.850;2022-09-09T15:59:00;20.70;99.90
19365;DHT22;9818;48.382;10.850;2022-09-09T16:01:32;20.90;99.90
19365;DHT22;9818;48.382;10.850;2022-09-09T16:04:00;21.00;99.90
19365;DHT22;9818;48.382;10.850;2022-09-09T16:06:29;21.00;99.90
19365;DHT22;9818;48.382;10.850;2022-09-09T16:08:58;20.90;99.90
19365;DHT22;9818;48.382;10.850;2022-09-09T16:11:28;21.00;99.90
19365;DHT22;9818;48.382;10.850;2022-09-09T16:13:57;20.60;99.90
19365;DHT22;9818;48.382;10.850;2022-09-09T16:16:27;20.50;99.90
19365;DHT22;9818;48.382;10.850;2022-09-09T16:18:59;20.20;99.90